BRU weather

Brussels Airport
Brussels, Brussels-Capital Region, Belgium

Public forecast

Using degrees Celsius for public forecast. Weather courtesy of forecast.io.

METAR (pilot weather report)

Retrieved 2018/08/16 04:50 UTC (12 minutes ago):

EBBR 160450Z 18006KT 9999 BKN030 16/13 Q1017 NOSIG

TAF (pilot weather forecast)

Forecast is more than 12 hours old.

Retrieved 2018/08/15 00:27 UTC (1 day ago):

TAF EBBR 152320Z 1600/1706 20005KT 9999 SCT022 PROB40 TEMPO 1700/1706 VRB18G30KT 2200 SHRA TSRA BKN006CB